createdAt,value
2023-04-10T00:01:41.229Z,101982.13
2023-04-10T00:04:09.054Z,101983.81
2023-04-10T00:06:36.347Z,101981.84
2023-04-10T00:09:03.581Z,101977.00
2023-04-10T00:11:30.817Z,101968.69
2023-04-10T00:13:57.991Z,101973.53
2023-04-10T00:16:25.221Z,101969.75
2023-04-10T00:18:52.415Z,101970.28
2023-04-10T00:21:19.581Z,101970.66
2023-04-10T00:23:46.727Z,101977.78
2023-04-10T00:26:14.141Z,101976.88
2023-04-10T00:28:41.270Z,101977.63
2023-04-10T00:31:08.436Z,101979.03
2023-04-10T00:33:35.723Z,101976.88
2023-04-10T00:36:02.927Z,101975.28
2023-04-10T00:38:30.103Z,101981.00
2023-04-10T00:40:57.297Z,101973.09
2023-04-10T00:43:24.443Z,101970.84
2023-04-10T00:45:52.043Z,101969.91
2023-04-10T00:48:19.378Z,101970.88
2023-04-10T00:50:47.387Z,101968.88
2023-04-10T00:53:14.671Z,101964.03
2023-04-10T00:55:42.024Z,101970.63
2023-04-10T00:58:13.428Z,101960.84
2023-04-10T01:00:41.727Z,101952.28
2023-04-10T01:03:11.869Z,101955.91
2023-04-10T01:05:50.957Z,101958.66
2023-04-10T01:08:46.782Z,101957.31
2023-04-10T01:11:34.513Z,101949.09
2023-04-10T01:14:16.370Z,101955.22
2023-04-10T01:16:56.588Z,101954.50
2023-04-10T01:19:51.434Z,101960.03
2023-04-10T01:22:28.760Z,101959.47
2023-04-10T01:25:12.462Z,101953.25
2023-04-10T01:28:07.326Z,101960.47
2023-04-10T01:30:36.945Z,101961.78
2023-04-10T01:33:12.723Z,101959.91
2023-04-10T01:35:44.367Z,101960.94
2023-04-10T01:38:15.844Z,101965.53
2023-04-10T01:40:50.056Z,101957.34
2023-04-10T01:43:19.581Z,101958.66
2023-04-10T01:45:51.206Z,101967.03
2023-04-10T01:48:19.469Z,101965.41
2023-04-10T01:50:48.553Z,101958.84
2023-04-10T01:53:16.883Z,101965.94
2023-04-10T01:55:44.194Z,101970.91
2023-04-10T01:58:12.031Z,101960.75
2023-04-10T02:00:43.566Z,101954.09
2023-04-10T02:03:11.451Z,101956.19
2023-04-10T02:06:05.316Z,101955.44
2023-04-10T02:08:42.428Z,101960.44
2023-04-10T02:11:39.846Z,101952.91
2023-04-10T02:14:16.484Z,101954.91
2023-04-10T02:16:45.402Z,101954.34
2023-04-10T02:19:13.894Z,101951.09
2023-04-10T02:21:42.149Z,101949.22
2023-04-10T02:24:09.399Z,101948.00
2023-04-10T02:26:51.596Z,101941.91
2023-04-10T02:29:19.650Z,101947.13
2023-04-10T02:31:47.250Z,101949.50
2023-04-10T02:34:14.571Z,101945.78
2023-04-10T02:36:41.827Z,101940.53
2023-04-10T02:39:09.157Z,101935.44
2023-04-10T02:41:36.548Z,101928.16
2023-04-10T02:44:04.079Z,101933.47
2023-04-10T02:46:31.299Z,101925.78
2023-04-10T02:48:59.154Z,101927.25
2023-04-10T02:51:26.469Z,101925.38
2023-04-10T02:53:53.911Z,101926.13
2023-04-10T02:56:21.236Z,101927.00
2023-04-10T02:58:48.386Z,101918.53
2023-04-10T03:01:16.106Z,101919.28
2023-04-10T03:03:43.358Z,101921.03
2023-04-10T03:06:11.020Z,101920.28
2023-04-10T03:08:38.170Z,101918.66
2023-04-10T03:11:05.646Z,101904.72
2023-04-10T03:13:32.790Z,101908.84
2023-04-10T03:16:00.254Z,101904.38
2023-04-10T03:18:27.390Z,101901.75
2023-04-10T03:20:55.431Z,101903.63
2023-04-10T03:23:22.572Z,101910.78
2023-04-10T03:25:54.924Z,101896.16
2023-04-10T03:28:22.673Z,101898.53
2023-04-10T03:30:50.627Z,101896.94
2023-04-10T03:33:17.812Z,101888.88
2023-04-10T03:35:46.614Z,101892.19
2023-04-10T03:38:13.851Z,101891.06
2023-04-10T03:40:40.956Z,101882.66
2023-04-10T03:43:08.168Z,101891.19
2023-04-10T03:45:35.335Z,101894.16
2023-04-10T03:48:02.683Z,101878.88
2023-04-10T03:50:29.883Z,101878.16
2023-04-10T03:52:57.064Z,101877.38
2023-04-10T03:55:24.257Z,101885.09
2023-04-10T03:57:51.401Z,101882.38
2023-04-10T04:00:20.470Z,101884.00
2023-04-10T04:02:52.248Z,101880.63
2023-04-10T04:05:20.012Z,101881.59
2023-04-10T04:07:47.213Z,101879.88
2023-04-10T04:10:14.366Z,101881.91
2023-04-10T04:12:41.484Z,101879.41
2023-04-10T04:15:09.226Z,101880.25
2023-04-10T04:17:36.458Z,101882.63
2023-04-10T04:20:05.343Z,101884.56
2023-04-10T04:22:32.462Z,101878.63
2023-04-10T04:24:59.740Z,101878.38
2023-04-10T04:27:26.896Z,101881.72
2023-04-10T04:29:54.043Z,101881.38
2023-04-10T04:32:21.295Z,101884.69
2023-04-10T04:34:48.540Z,101882.38
2023-04-10T04:37:15.799Z,101881.34
2023-04-10T04:39:42.936Z,101884.06
2023-04-10T04:42:10.107Z,101874.53
2023-04-10T04:44:37.273Z,101880.38
2023-04-10T04:47:04.428Z,101876.50
2023-04-10T04:49:31.597Z,101878.63
2023-04-10T04:51:58.723Z,101864.31
2023-04-10T04:54:25.898Z,101872.03
2023-04-10T04:56:53.034Z,101883.06
2023-04-10T04:59:20.316Z,101877.53
2023-04-10T05:01:47.645Z,101872.44
2023-04-10T05:04:15.108Z,101873.78
2023-04-10T05:06:42.443Z,101868.84
2023-04-10T05:09:09.656Z,101876.63
2023-04-10T05:11:36.761Z,101865.09
2023-04-10T05:14:03.922Z,101866.47
2023-04-10T05:16:31.049Z,101869.56
2023-04-10T05:18:58.664Z,101877.06
2023-04-10T05:21:25.904Z,101868.84
2023-04-10T05:23:53.050Z,101876.41
2023-04-10T05:26:20.213Z,101877.91
2023-04-10T05:28:47.345Z,101867.13
2023-04-10T05:31:14.538Z,101874.81
2023-04-10T05:33:41.738Z,101874.19
2023-04-10T05:36:10.919Z,101879.25
2023-04-10T05:38:38.176Z,101871.31
2023-04-10T05:41:05.328Z,101878.91
2023-04-10T05:43:32.662Z,101882.84
2023-04-10T05:45:59.840Z,101882.28
2023-04-10T05:48:28.708Z,101879.91
2023-04-10T05:50:55.845Z,101884.84
2023-04-10T05:53:32.780Z,101880.72
2023-04-10T05:56:00.232Z,101876.44
2023-04-10T05:58:28.782Z,101884.47
2023-04-10T06:00:56.339Z,101870.59
2023-04-10T06:03:24.010Z,101883.81
2023-04-10T06:05:51.406Z,101879.47
2023-04-10T06:08:19.431Z,101880.69
2023-04-10T06:10:46.979Z,101887.69
2023-04-10T06:13:15.637Z,101883.16
2023-04-10T06:15:43.130Z,101885.00
2023-04-10T06:18:10.522Z,101867.13
2023-04-10T06:20:38.156Z,101857.78
2023-04-10T06:23:05.817Z,101865.91
2023-04-10T06:25:33.175Z,101855.94
2023-04-10T06:28:00.425Z,101852.75
2023-04-10T06:30:27.628Z,101862.22
2023-04-10T06:32:54.803Z,101859.69
2023-04-10T06:35:22.601Z,101849.75
2023-04-10T06:37:49.845Z,101848.75
2023-04-10T06:40:17.165Z,101847.91
2023-04-10T06:42:44.377Z,101838.59
2023-04-10T06:45:11.720Z,101839.09
2023-04-10T06:47:39.102Z,101839.94
2023-04-10T06:50:06.602Z,101843.13
2023-04-10T06:52:34.101Z,101832.09
2023-04-10T06:55:01.450Z,101825.03
2023-04-10T06:57:28.827Z,101820.28
2023-04-10T06:59:56.156Z,101815.34
2023-04-10T07:02:23.558Z,101813.41
2023-04-10T07:04:50.879Z,101802.00
2023-04-10T07:07:19.299Z,101800.63
2023-04-10T07:09:46.473Z,101793.91
2023-04-10T07:12:13.778Z,101801.97
2023-04-10T07:14:41.389Z,101800.44
2023-04-10T07:17:08.915Z,101786.50
2023-04-10T07:19:37.622Z,101790.00
2023-04-10T07:22:04.785Z,101788.63
2023-04-10T07:24:32.645Z,101792.13
2023-04-10T07:27:01.466Z,101793.50
2023-04-10T07:29:28.599Z,101794.97
2023-04-10T07:31:56.408Z,101781.63
2023-04-10T07:34:23.955Z,101777.88
2023-04-10T07:36:51.257Z,101780.41
2023-04-10T07:39:18.567Z,101771.50
2023-04-10T07:41:45.741Z,101765.22
2023-04-10T07:44:13.178Z,101761.50
2023-04-10T07:46:41.441Z,101755.06
2023-04-10T07:49:09.055Z,101757.66
2023-04-10T07:51:36.426Z,101753.59
2023-04-10T07:54:04.531Z,101749.53
2023-04-10T07:56:31.712Z,101741.19
2023-04-10T07:59:02.599Z,101751.94
2023-04-10T08:01:29.806Z,101746.19
2023-04-10T08:03:57.332Z,101736.88
2023-04-10T08:06:24.616Z,101726.94
2023-04-10T08:08:54.918Z,101722.47
2023-04-10T08:11:32.387Z,101731.94
2023-04-10T08:14:02.151Z,101722.91
2023-04-10T08:16:32.415Z,101728.78
2023-04-10T08:19:00.837Z,101719.44
2023-04-10T08:21:31.654Z,101708.53
2023-04-10T08:25:28.221Z,101724.94
2023-04-10T08:27:55.519Z,101710.50
2023-04-10T08:30:22.678Z,101709.19
2023-04-10T08:32:49.824Z,101708.88
2023-04-10T08:35:17.187Z,101707.56
2023-04-10T08:37:49.675Z,101697.53
2023-04-10T08:40:17.226Z,101698.50
2023-04-10T08:42:44.375Z,101700.13
2023-04-10T08:45:11.655Z,101687.16
2023-04-10T08:47:41.660Z,101697.16
2023-04-10T08:50:13.263Z,101689.72
2023-04-10T08:52:45.272Z,101682.41
2023-04-10T08:55:14.760Z,101691.66
2023-04-10T08:57:48.052Z,101685.88
2023-04-10T09:00:23.479Z,101671.34
2023-04-10T09:02:55.303Z,101668.47
2023-04-10T09:05:25.169Z,101664.53
2023-04-10T09:07:52.394Z,101667.38
2023-04-10T09:10:19.571Z,101657.00
2023-04-10T09:12:48.385Z,101653.75
2023-04-10T09:15:16.299Z,101650.25
2023-04-10T09:18:01.438Z,101629.59
2023-04-10T09:20:32.221Z,101641.34
2023-04-10T09:22:59.453Z,101641.47
2023-04-10T09:25:38.954Z,101625.25
2023-04-10T09:28:09.952Z,101615.88
2023-04-10T09:30:42.826Z,101624.50
2023-04-10T09:33:27.829Z,101612.50
2023-04-10T09:35:59.850Z,101604.69
2023-04-10T09:38:27.125Z,101588.91
2023-04-10T09:41:07.960Z,101595.38
2023-04-10T09:43:35.453Z,101598.91
2023-04-10T09:46:02.662Z,101597.72
2023-04-10T09:48:29.803Z,101591.91
2023-04-10T09:50:57.636Z,101570.91
2023-04-10T09:53:24.843Z,101561.38
2023-04-10T09:55:52.085Z,101573.09
2023-04-10T09:58:19.277Z,101572.81
2023-04-10T10:00:48.828Z,101550.50
2023-04-10T10:03:22.892Z,101549.06
2023-04-10T10:05:51.700Z,101556.59
2023-04-10T10:08:19.812Z,101529.16
2023-04-10T10:10:53.234Z,101539.91
2023-04-10T10:13:29.341Z,101536.28
2023-04-10T10:16:20.833Z,101536.84
2023-04-10T10:19:13.977Z,101523.06
2023-04-10T10:21:44.431Z,101518.41
2023-04-10T10:24:13.187Z,101502.31
2023-04-10T10:26:40.637Z,101504.00
2023-04-10T10:29:11.181Z,101508.50
2023-04-10T10:31:38.812Z,101488.50
2023-04-10T10:34:09.150Z,101487.84
2023-04-10T10:36:37.605Z,101482.94
2023-04-10T10:39:38.274Z,101471.78
2023-04-10T10:42:20.420Z,101463.03
2023-04-10T10:45:12.101Z,101458.09
2023-04-10T10:47:47.354Z,101442.59
2023-04-10T10:50:14.590Z,101445.09
2023-04-10T10:52:49.049Z,101446.25
2023-04-10T10:55:21.892Z,101430.22
2023-04-10T10:57:52.351Z,101427.25
2023-04-10T11:00:25.761Z,101438.56
2023-04-10T11:03:19.395Z,101435.22
2023-04-10T11:06:08.770Z,101424.88
2023-04-10T11:08:46.542Z,101413.22
2023-04-10T11:11:20.012Z,101404.25
2023-04-10T11:13:49.892Z,101410.00
2023-04-10T11:16:17.775Z,101391.19
2023-04-10T11:18:45.155Z,101395.81
2023-04-10T11:21:23.388Z,101385.91
2023-04-10T11:23:50.497Z,101387.31
2023-04-10T11:26:41.983Z,101383.75
2023-04-10T11:29:18.065Z,101367.13
2023-04-10T11:31:46.643Z,101372.63
2023-04-10T11:34:15.673Z,101371.00
2023-04-10T11:36:44.801Z,101367.72
2023-04-10T11:39:18.806Z,101372.97
2023-04-10T11:41:48.497Z,101351.72
2023-04-10T11:44:22.075Z,101347.06
2023-04-10T11:46:51.175Z,101333.75
2023-04-10T11:49:25.088Z,101340.91
2023-04-10T11:51:52.641Z,101330.38
2023-04-10T11:54:25.716Z,101342.28
2023-04-10T11:57:07.042Z,101325.91
2023-04-10T11:59:35.127Z,101334.03
2023-04-10T12:02:14.733Z,101307.28
2023-04-10T12:04:44.377Z,101303.19
2023-04-10T12:07:11.941Z,101320.28
2023-04-10T12:09:39.150Z,101306.25
2023-04-10T12:12:08.274Z,101291.91
2023-04-10T12:14:39.505Z,101274.38
2023-04-10T12:17:11.129Z,101282.53
2023-04-10T12:19:40.102Z,101273.75
2023-04-10T12:22:07.574Z,101253.72
2023-04-10T12:24:51.132Z,101253.66
2023-04-10T12:27:24.117Z,101250.50
2023-04-10T12:29:57.322Z,101245.59
2023-04-10T12:32:27.094Z,101264.09
2023-04-10T12:34:59.013Z,101265.56
2023-04-10T12:37:54.539Z,101231.06
2023-04-10T12:40:21.900Z,101229.75
2023-04-10T12:42:49.074Z,101243.00
2023-04-10T12:45:16.346Z,101232.44
2023-04-10T12:47:49.420Z,101238.84
2023-04-10T12:50:18.629Z,101237.66
2023-04-10T12:53:03.005Z,101226.25
2023-04-10T12:55:31.287Z,101206.25
2023-04-10T12:57:58.550Z,101209.13
2023-04-10T13:00:26.231Z,101213.84
2023-04-10T13:02:53.599Z,101233.13
2023-04-10T13:05:21.669Z,101209.03
2023-04-10T13:07:52.648Z,101189.16
2023-04-10T13:10:20.248Z,101190.28
2023-04-10T13:12:47.385Z,101183.94
2023-04-10T13:15:14.538Z,101179.88
2023-04-10T13:17:41.969Z,101172.56
2023-04-10T13:20:13.420Z,101181.00
2023-04-10T13:22:40.581Z,101195.00
2023-04-10T13:25:08.788Z,101176.84
2023-04-10T13:27:35.943Z,101165.75
2023-04-10T13:30:03.187Z,101157.66
2023-04-10T13:32:31.101Z,101154.66
2023-04-10T13:34:58.287Z,101159.44
2023-04-10T13:37:26.581Z,101143.22
2023-04-10T13:39:53.838Z,101140.31
2023-04-10T13:42:21.023Z,101137.88
2023-04-10T13:44:48.476Z,101135.19
2023-04-10T13:47:15.844Z,101136.25
2023-04-10T13:49:43.592Z,101130.06
2023-04-10T13:52:10.935Z,101127.28
2023-04-10T13:54:38.075Z,101118.13
2023-04-10T13:57:05.225Z,101123.00
2023-04-10T13:59:32.379Z,101113.69
2023-04-10T14:01:59.720Z,101127.28
2023-04-10T14:04:26.933Z,101120.84
2023-04-10T14:06:57.761Z,101106.59
2023-04-10T14:09:25.279Z,101105.63
2023-04-10T14:11:52.510Z,101099.84
2023-04-10T14:14:19.683Z,101090.16
2023-04-10T14:16:46.878Z,101087.50
2023-04-10T14:19:14.067Z,101085.75
2023-04-10T14:21:43.841Z,101077.47
2023-04-10T14:24:11.274Z,101086.00
2023-04-10T14:26:38.555Z,101073.84
2023-04-10T14:29:08.531Z,101067.72
2023-04-10T14:31:41.314Z,101061.69
2023-04-10T14:34:14.387Z,101058.03
2023-04-10T14:36:41.632Z,101056.44
2023-04-10T14:39:08.874Z,101043.16
2023-04-10T14:41:36.034Z,101038.66
2023-04-10T14:44:03.311Z,101032.66
2023-04-10T14:46:30.549Z,101026.41
2023-04-10T14:48:57.839Z,101026.22
2023-04-10T14:51:25.159Z,101005.94
2023-04-10T14:53:52.527Z,101005.28
2023-04-10T14:56:19.811Z,101006.06
2023-04-10T14:58:47.615Z,101008.69
2023-04-10T15:01:15.289Z,100979.19
2023-04-10T15:03:42.658Z,100999.28
2023-04-10T15:06:09.977Z,100982.63
2023-04-10T15:08:37.177Z,100982.13
2023-04-10T15:11:05.247Z,100971.28
2023-04-10T15:13:32.999Z,100976.22
2023-04-10T15:16:00.620Z,100970.31
2023-04-10T15:18:28.221Z,100972.78
2023-04-10T15:20:56.033Z,100961.03
2023-04-10T15:23:23.358Z,100958.81
2023-04-10T15:25:51.613Z,100964.38
2023-04-10T15:28:18.787Z,100945.16
2023-04-10T15:30:46.525Z,100951.03
2023-04-10T15:33:13.742Z,100929.28
2023-04-10T15:35:41.468Z,100919.22
2023-04-10T15:38:09.920Z,100913.19
2023-04-10T15:40:37.266Z,100900.41
2023-04-10T15:43:04.557Z,100909.75
2023-04-10T15:45:31.695Z,100890.09
2023-04-10T15:48:01.130Z,100869.19
2023-04-10T15:50:28.465Z,100870.63
2023-04-10T15:52:55.661Z,100868.09
2023-04-10T15:55:22.785Z,100861.94
2023-04-10T15:57:49.929Z,100865.28
2023-04-10T16:00:17.598Z,100855.97
2023-04-10T16:02:45.098Z,100838.97
2023-04-10T16:05:12.582Z,100850.03
2023-04-10T16:07:42.001Z,100829.25
2023-04-10T16:10:09.760Z,100826.66
2023-04-10T16:12:37.403Z,100822.47
2023-04-10T16:15:08.071Z,100814.84
2023-04-10T16:17:35.497Z,100816.75
2023-04-10T16:20:07.345Z,100809.72
2023-04-10T16:22:35.902Z,100824.81
2023-04-10T16:27:31.610Z,100787.91
2023-04-10T16:29:58.934Z,100792.69
2023-04-10T16:32:26.159Z,100786.84
2023-04-10T16:34:53.384Z,100782.47
2023-04-10T16:37:20.525Z,100774.06
2023-04-10T16:39:47.721Z,100769.59
2023-04-10T16:42:14.865Z,100761.78
2023-04-10T16:44:42.065Z,100769.19
2023-04-10T16:47:09.454Z,100756.81
2023-04-10T16:49:36.692Z,100764.91
2023-04-10T16:52:04.261Z,100755.59
2023-04-10T16:54:31.541Z,100778.03
2023-04-10T16:56:58.705Z,100753.84
2023-04-10T16:59:25.956Z,100746.25
2023-04-10T17:01:53.594Z,100741.81
2023-04-10T17:04:20.921Z,100746.91
2023-04-10T17:06:48.407Z,100740.88
2023-04-10T17:09:15.608Z,100741.50
2023-04-10T17:11:42.993Z,100724.00
2023-04-10T17:14:10.599Z,100708.06
2023-04-10T17:16:38.016Z,100705.81
2023-04-10T17:19:05.730Z,100708.47
2023-04-10T17:21:33.896Z,100706.59
2023-04-10T17:24:01.354Z,100697.34
2023-04-10T17:26:28.634Z,100692.91
2023-04-10T17:28:56.375Z,100693.16
2023-04-10T17:31:23.868Z,100692.88
2023-04-10T17:33:51.022Z,100696.81
2023-04-10T17:36:18.299Z,100693.31
2023-04-10T17:38:45.485Z,100675.16
2023-04-10T17:41:15.986Z,100680.56
2023-04-10T17:43:43.256Z,100677.84
2023-04-10T17:46:16.885Z,100669.75
2023-04-10T17:48:45.004Z,100661.22
2023-04-10T17:51:12.369Z,100660.03
2023-04-10T17:53:39.563Z,100666.56
2023-04-10T17:56:07.420Z,100661.06
2023-04-10T17:58:34.618Z,100670.47
2023-04-10T18:01:01.801Z,100671.41
2023-04-10T18:03:29.529Z,100670.69
2023-04-10T18:05:56.801Z,100663.16
2023-04-10T18:08:23.984Z,100663.91
2023-04-10T18:10:51.160Z,100657.84
2023-04-10T18:13:18.398Z,100651.84
2023-04-10T18:15:45.659Z,100644.13
2023-04-10T18:18:13.097Z,100648.19
2023-04-10T18:20:40.425Z,100651.16
2023-04-10T18:23:07.974Z,100644.25
2023-04-10T18:25:35.543Z,100646.06
2023-04-10T18:30:32.980Z,100636.75
2023-04-10T18:33:00.290Z,100639.03
2023-04-10T18:35:28.278Z,100645.66
2023-04-10T18:37:56.991Z,100639.56
2023-04-10T18:40:28.238Z,100636.34
2023-04-10T18:42:56.676Z,100636.00
2023-04-10T18:45:24.303Z,100638.50
2023-04-10T18:47:51.538Z,100626.84
2023-04-10T18:50:18.825Z,100620.88
2023-04-10T18:52:46.011Z,100618.34
2023-04-10T18:55:13.269Z,100619.13
2023-04-10T18:57:40.707Z,100620.94
2023-04-10T19:00:09.520Z,100606.88
2023-04-10T19:02:36.917Z,100606.88
2023-04-10T19:05:04.424Z,100598.41
2023-04-10T19:07:34.813Z,100587.47
2023-04-10T19:10:01.995Z,100582.91
2023-04-10T19:12:29.439Z,100573.91
2023-04-10T19:15:00.120Z,100584.69
2023-04-10T19:17:28.011Z,100586.00
2023-04-10T19:19:56.974Z,100577.75
2023-04-10T19:22:24.391Z,100575.72
2023-04-10T19:24:51.644Z,100580.38
2023-04-10T19:27:18.872Z,100568.34
2023-04-10T19:29:46.294Z,100570.63
2023-04-10T19:32:13.435Z,100566.34
2023-04-10T19:34:40.671Z,100561.59
2023-04-10T19:37:07.870Z,100555.91
2023-04-10T19:39:35.487Z,100558.06
2023-04-10T19:42:03.216Z,100551.00
2023-04-10T19:44:30.494Z,100547.53
2023-04-10T19:46:57.785Z,100545.31
2023-04-10T19:49:26.211Z,100538.31
2023-04-10T19:51:55.218Z,100542.38
2023-04-10T19:54:22.529Z,100535.41
2023-04-10T19:56:49.665Z,100535.94
2023-04-10T19:59:17.189Z,100529.19
2023-04-10T20:01:44.514Z,100533.50
2023-04-10T20:04:12.111Z,100529.56
2023-04-10T20:06:41.615Z,100528.44
2023-04-10T20:09:09.346Z,100529.16
2023-04-10T20:11:36.957Z,100527.63
2023-04-10T20:14:04.196Z,100525.13
2023-04-10T20:16:31.773Z,100522.78
2023-04-10T20:18:58.970Z,100516.44
2023-04-10T20:21:27.633Z,100510.34
2023-04-10T20:23:57.298Z,100509.31
2023-04-10T20:26:27.231Z,100496.81
2023-04-10T20:28:55.304Z,100481.16
2023-04-10T20:31:22.757Z,100485.22
2023-04-10T20:33:50.002Z,100477.81
2023-04-10T20:36:17.818Z,100468.72
2023-04-10T20:38:45.105Z,100461.00
2023-04-10T20:41:12.326Z,100462.34
2023-04-10T20:43:40.142Z,100458.03
2023-04-10T20:46:10.597Z,100448.66
2023-04-10T20:48:38.098Z,100451.81
2023-04-10T20:51:05.821Z,100453.09
2023-04-10T20:53:33.890Z,100437.56
2023-04-10T20:56:01.040Z,100432.31
2023-04-10T20:58:28.200Z,100440.28
2023-04-10T21:00:56.496Z,100431.47
2023-04-10T21:03:23.941Z,100425.31
2023-04-10T21:05:53.530Z,100421.06
2023-04-10T21:08:21.795Z,100414.22
2023-04-10T21:10:49.114Z,100406.72
2023-04-10T21:13:16.283Z,100394.16
2023-04-10T21:15:43.580Z,100381.75
2023-04-10T21:18:11.080Z,100382.97
2023-04-10T21:20:38.284Z,100376.47
2023-04-10T21:23:05.504Z,100379.56
2023-04-10T21:25:33.550Z,100372.59
2023-04-10T21:28:02.263Z,100367.84
2023-04-10T21:30:29.622Z,100370.66
2023-04-10T21:32:56.900Z,100367.94
2023-04-10T21:35:24.800Z,100367.72
2023-04-10T21:37:56.569Z,100366.44
2023-04-10T21:40:24.848Z,100357.00
2023-04-10T21:42:52.569Z,100348.38
2023-04-10T21:45:21.025Z,100336.31
2023-04-10T21:47:48.246Z,100329.75
2023-04-10T21:50:15.575Z,100329.63
2023-04-10T21:52:42.808Z,100336.06
2023-04-10T21:55:10.700Z,100339.09
2023-04-10T21:57:37.963Z,100339.19
2023-04-10T22:00:06.082Z,100330.56
2023-04-10T22:02:33.573Z,100336.50
2023-04-10T22:05:01.166Z,100317.06
2023-04-10T22:07:28.802Z,100310.97
2023-04-10T22:09:55.981Z,100324.31
2023-04-10T22:12:23.112Z,100317.38
2023-04-10T22:14:51.961Z,100340.50
2023-04-10T22:17:19.140Z,100335.66
2023-04-10T22:19:46.296Z,100322.66
2023-04-10T22:22:13.521Z,100315.16
2023-04-10T22:24:40.902Z,100319.53
2023-04-10T22:27:08.151Z,100315.94
2023-04-10T22:29:35.873Z,100311.00
2023-04-10T22:32:03.055Z,100303.13
2023-04-10T22:34:30.374Z,100311.06
2023-04-10T22:36:57.833Z,100288.31
2023-04-10T22:39:25.086Z,100318.97
2023-04-10T22:41:52.286Z,100320.75
2023-04-10T22:44:19.443Z,100320.47
2023-04-10T22:46:48.280Z,100320.47
2023-04-10T22:49:18.280Z,100319.88
2023-04-10T22:51:48.411Z,100315.53
2023-04-10T22:54:18.453Z,100314.63
2023-04-10T22:56:45.650Z,100305.00
2023-04-10T22:59:13.065Z,100299.75
2023-04-10T23:01:40.352Z,100296.78
2023-04-10T23:04:07.606Z,100303.69
2023-04-10T23:06:34.759Z,100299.53
2023-04-10T23:09:01.976Z,100299.75
2023-04-10T23:11:29.160Z,100300.41
2023-04-10T23:13:56.399Z,100296.94
2023-04-10T23:16:23.628Z,100303.31
2023-04-10T23:18:50.873Z,100296.69
2023-04-10T23:21:18.227Z,100302.84
2023-04-10T23:23:45.608Z,100295.94
2023-04-10T23:26:12.912Z,100309.13
2023-04-10T23:28:40.537Z,100300.00
2023-04-10T23:31:09.229Z,100297.44
2023-04-10T23:33:36.546Z,100295.69
2023-04-10T23:36:04.340Z,100304.84
2023-04-10T23:38:31.863Z,100302.03
2023-04-10T23:40:59.084Z,100315.03
2023-04-10T23:43:26.238Z,100301.03
2023-04-10T23:45:53.387Z,100302.41
2023-04-10T23:48:20.698Z,100306.50
2023-04-10T23:50:47.884Z,100311.16
2023-04-10T23:53:15.519Z,100312.59
2023-04-10T23:55:43.085Z,100306.53
2023-04-10T23:58:10.447Z,100310.81
